This is the latest recevied weather packets stored in our database for station/object EA3IK-7. If no packets are shown the sender has not sent any weather packets the latest 10 day(s).
| Time | Temp. | Humidity | Pressure | Rain* | Wind** | Luminosity | Snow |
|---|---|---|---|---|---|---|---|
| 1777702814 | 17.78° C | 85% | 1019.7 hPa | - | - | - | - |
| 1777702809 | 17.78° C | 85% | 1019.7 hPa | - | - | - | - |
| 1777701007 | 17.22° C | 84% | 1019.6 hPa | - | - | - | - |
| 1777699204 | 16.11° C | 85% | 1017.3 hPa | - | - | - | - |
| 1777697404 | 17.22° C | 84% | 1019.2 hPa | - | - | - | - |
| 1777697404 | 17.22° C | 84% | 1019.2 hPa | - | - | - | - |
| 1777695604 | 17.78° C | 84% | 1019.2 hPa | - | - | - | - |
| 1777693813 | 17.78° C | 84% | 1019.3 hPa | - | - | - | - |
| 1777692004 | 17.78° C | 83% | 1019.1 hPa | - | - | - | - |
| 1777690204 | 17.78° C | 83% | 1019.4 hPa | - | - | - | - |
| 1777688404 | 17.78° C | 83% | 1019.4 hPa | - | - | - | - |
| 1777686608 | 17.78° C | 82% | 1019.5 hPa | - | - | - | - |
| 1777684802 | 17.78° C | 82% | 1019.6 hPa | - | - | - | - |
| 1777683004 | 18.33° C | 81% | 1019.8 hPa | - | - | - | - |
| 1777681204 | 18.33° C | 81% | 1020.1 hPa | - | - | - | - |
| 1777681204 | 18.33° C | 81% | 1020.1 hPa | - | - | - | - |
| 1777679403 | 18.33° C | 81% | 1020.5 hPa | - | - | - | - |
| 1777677603 | 18.33° C | 80% | 1020.6 hPa | - | - | - | - |
| 1777675806 | 18.33° C | 80% | 1020.6 hPa | - | - | - | - |
| 1777674003 | 18.33° C | 78% | 1020.5 hPa | - | - | - | - |
| 1777672202 | 18.89° C | 78% | 1020.5 hPa | - | - | - | - |
| 1777672201 | 18.89° C | 78% | 1020.5 hPa | - | - | - | - |
| 1777670401 | 18.89° C | 78% | 1020.6 hPa | - | - | - | - |
| 1777668601 | 18.89° C | 76% | 1020.5 hPa | - | - | - | - |
| 1777666801 | 19.44° C | 75% | 1020.6 hPa | - | - | - | - |
* Rain since midnight (hover to see other rain measurements)
** Current wind speed in m/s (hover to see current wind gust speed)